Time;durP1;ratioP1;P1;durP2;ratioP2;P2;SDS_P1;SDS_P2;PMS_P1;PMS_P2;Temp;Humidity;BMP_temperature;BMP_pressure;BME280_temperature;BME280_humidity;BME280_pressure;Samples;Min_cycle;Max_cycle;Signal;HPM_P1;HPM_P2
2022/11/18 00:03:51;;;;;;;3.10;2.25;;;;;;;9.77;65.87;99133.00;18435119;32;20115;-60
2022/11/18 00:24:16;;;;;;;1.50;1.42;;;;;;;9.43;66.21;99097.16;18434453;32;20134;-60
2022/11/18 00:34:19;;;;;;;1.75;1.50;;;;;;;9.25;65.73;99090.53;18420991;32;20097;-60
2022/11/18 00:44:23;;;;;;;2.15;1.85;;;;;;;9.05;65.94;99085.69;18419431;32;20408;-60
2022/11/18 00:54:27;;;;;;;2.15;1.85;;;;;;;8.69;66.06;99084.50;18434748;32;20499;-60
2022/11/18 01:04:31;;;;;;;1.48;1.37;;;;;;;8.62;66.37;99080.28;18433358;32;20105;-60
2022/11/18 01:14:35;;;;;;;0.77;0.77;;;;;;;8.27;67.10;99066.03;18434298;32;20097;-60
2022/11/18 01:24:39;;;;;;;1.73;1.62;;;;;;;8.36;66.50;99050.31;18431821;32;20128;-60
2022/11/18 01:34:43;;;;;;;2.12;2.03;;;;;;;8.25;67.23;99062.56;18432803;32;20183;-60
2022/11/18 01:45:09;;;;;;;1.35;1.25;;;;;;;8.31;68.12;99039.09;18431798;32;20759;-60
2022/11/18 01:55:16;;;;;;;2.00;1.90;;;;;;;8.71;68.03;99056.72;18431277;32;20111;-60
2022/11/18 02:05:21;;;;;;;2.87;2.62;;;;;;;8.93;69.08;99077.19;18431153;32;20368;-60
2022/11/18 02:15:33;;;;;;;0.68;0.68;;;;;;;9.20;69.48;99075.00;18430780;32;20100;-60
2022/11/18 02:25:47;;;;;;;3.72;2.12;;;;;;;9.38;69.21;99062.50;18430262;32;20429;-60
2022/11/18 02:35:56;;;;;;;2.35;2.25;;;;;;;9.30;69.85;99066.13;18450217;32;20445;-60
2022/11/18 02:46:02;;;;;;;4.68;3.97;;;;;;;9.58;69.36;99065.63;18450470;32;20101;-60
2022/11/18 02:56:08;;;;;;;1.95;1.48;;;;;;;9.78;69.44;99033.09;18450017;32;20428;-60
2022/11/18 03:06:23;;;;;;;0.80;0.80;;;;;;;9.91;69.42;99009.34;18434424;32;20096;-60
2022/11/18 03:16:30;;;;;;;2.90;2.22;;;;;;;9.98;69.46;99000.50;18434042;32;20139;-60
2022/11/18 03:26:37;;;;;;;2.50;0.98;;;;;;;10.05;69.54;98993.41;18448171;32;20429;-60
2022/11/18 03:36:45;;;;;;;4.03;3.12;;;;;;;10.25;69.07;98996.41;18446087;32;20106;-60
2022/11/18 03:46:56;;;;;;;0.85;0.85;;;;;;;10.23;69.64;98997.31;18435299;32;20100;-60
2022/11/18 03:57:06;;;;;;;0.50;0.50;;;;;;;10.39;69.24;98995.22;18435242;32;20097;-60
2022/11/18 04:07:14;;;;;;;0.80;0.80;;;;;;;10.54;68.82;99028.78;18435928;32;20088;-60
2022/11/18 04:17:21;;;;;;;0.70;0.70;;;;;;;10.54;69.07;99027.94;18435676;32;20397;-60
2022/11/18 04:27:25;;;;;;;1.20;1.17;;;;;;;10.45;69.70;99005.53;18434435;32;20094;-60
2022/11/18 04:37:29;;;;;;;2.10;1.15;;;;;;;10.56;69.76;98976.59;18434440;32;20085;-60
2022/11/18 04:47:32;;;;;;;0.70;0.70;;;;;;;10.61;69.64;98972.09;18434946;32;20142;-60
2022/11/18 04:57:37;;;;;;;0.82;0.82;;;;;;;10.64;69.66;98966.81;18433642;32;20103;-60
2022/11/18 05:07:40;;;;;;;4.95;3.03;;;;;;;10.52;70.00;98974.94;18434404;32;20125;-60
2022/11/18 05:17:45;;;;;;;0.50;0.50;;;;;;;10.63;69.77;98982.50;18432948;32;20104;-60
2022/11/18 05:27:48;;;;;;;0.70;0.70;;;;;;;10.61;69.84;98961.66;18432892;32;20093;-60
2022/11/18 05:37:52;;;;;;;0.60;0.60;;;;;;;10.64;69.58;98948.53;18432427;32;20093;-60
2022/11/18 05:48:03;;;;;;;3.92;2.40;;;;;;;10.71;69.23;98950.97;18431607;32;20463;-60
2022/11/18 05:58:08;;;;;;;1.27;1.20;;;;;;;10.80;68.75;98969.00;18431914;32;20455;-60
2022/11/18 06:08:11;;;;;;;2.25;1.12;;;;;;;10.79;68.92;98949.03;18430139;32;20089;-60
2022/11/18 06:18:20;;;;;;;2.08;1.80;;;;;;;10.76;68.90;98956.94;18429871;32;20101;-60
2022/11/18 06:28:24;;;;;;;0.75;0.75;;;;;;;10.71;69.09;98950.97;18430011;32;20092;-60
2022/11/18 06:38:28;;;;;;;0.40;0.40;;;;;;;10.71;69.12;98962.28;18428603;32;20154;-60
2022/11/18 06:48:32;;;;;;;0.80;0.80;;;;;;;10.83;68.78;98954.13;18427877;32;20388;-60
2022/11/18 06:58:36;;;;;;;0.98;0.98;;;;;;;10.94;68.59;98961.69;18422640;32;20138;-60
2022/11/18 07:08:40;;;;;;;1.05;1.05;;;;;;;10.96;68.38;98975.53;18427136;32;20104;-60
2022/11/18 07:18:46;;;;;;;1.12;0.98;;;;;;;10.79;68.88;98972.50;18430382;32;20101;-60
2022/11/18 07:28:49;;;;;;;2.65;1.77;;;;;;;10.89;68.72;98973.16;18432107;32;20103;-60
2022/11/18 07:38:55;;;;;;;0.60;0.60;;;;;;;10.93;68.99;98970.41;18432960;32;20112;-60
2022/11/18 07:48:59;;;;;;;1.00;1.00;;;;;;;11.01;68.77;98943.25;18435355;32;20107;-60
2022/11/18 07:59:05;;;;;;;1.00;1.00;;;;;;;10.43;70.26;98918.63;18434108;32;20132;-60
2022/11/18 08:09:08;;;;;;;1.73;1.62;;;;;;;10.75;68.88;98934.34;18405915;32;20086;-60
2022/11/18 08:19:13;;;;;;;0.73;0.73;;;;;;;10.82;68.37;98901.97;18371692;32;20077;-60
2022/11/18 08:29:16;;;;;;;0.70;0.70;;;;;;;10.17;69.84;98895.78;18369626;32;20093;-60
2022/11/18 08:39:28;;;;;;;1.00;0.95;;;;;;;10.78;67.72;98927.31;18370497;32;20093;-60
2022/11/18 08:49:31;;;;;;;2.25;1.62;;;;;;;10.73;67.94;98925.72;18363782;32;73952;-60
2022/11/18 08:59:36;;;;;;;0.98;0.88;;;;;;;10.41;69.82;98917.78;18368984;32;20429;-60
2022/11/18 09:09:39;;;;;;;1.65;1.37;;;;;;;10.91;68.33;98909.56;18364426;32;20103;-60
2022/11/18 09:19:43;;;;;;;0.57;0.57;;;;;;;11.00;67.79;98895.37;18370948;32;20179;-60
2022/11/18 09:29:50;;;;;;;0.65;0.60;;;;;;;11.02;67.73;98895.34;18427945;32;20089;-60
2022/11/18 09:39:54;;;;;;;1.08;0.82;;;;;;;11.19;67.13;98895.72;18411757;32;20102;-60
2022/11/18 09:49:59;;;;;;;2.40;2.20;;;;;;;10.84;67.92;98874.06;18414381;32;20097;-60
2022/11/18 10:00:20;;;;;;;0.70;0.70;;;;;;;11.03;67.35;98863.09;18432685;32;20085;-60
2022/11/18 10:10:32;;;;;;;1.17;1.15;;;;;;;11.13;66.89;98861.06;18429923;32;20112;-60
2022/11/18 10:20:45;;;;;;;1.90;1.80;;;;;;;11.06;67.55;98829.94;18430234;32;20150;-60
2022/11/18 10:30:49;;;;;;;0.60;0.60;;;;;;;10.32;70.04;98817.13;18429960;32;20161;-60
2022/11/18 10:41:00;;;;;;;0.60;0.60;;;;;;;9.55;71.47;98819.94;18430050;32;20144;-60
2022/11/18 10:51:21;;;;;;;0.70;0.70;;;;;;;9.21;73.75;98815.47;18432549;32;20141;-60
2022/11/18 11:01:26;;;;;;;2.10;1.15;;;;;;;8.55;75.60;98821.16;18437117;32;20097;-60
2022/11/18 11:11:32;;;;;;;0.62;0.62;;;;;;;8.85;75.98;98829.25;18436128;32;20100;-60
2022/11/18 11:21:36;;;;;;;0.50;0.50;;;;;;;9.35;73.53;98821.25;18432850;32;20096;-60
2022/11/18 11:31:46;;;;;;;0.55;0.55;;;;;;;10.08;71.01;98814.28;18434978;32;20123;-60
2022/11/18 11:42:00;;;;;;;1.33;1.23;;;;;;;10.48;69.68;98815.03;18432392;32;20143;-60
2022/11/18 11:52:09;;;;;;;1.87;1.77;;;;;;;9.66;71.69;98812.72;18431443;32;20113;-60
2022/11/18 12:02:46;;;;;;;1.42;0.75;;;;;;;10.34;69.84;98807.53;18435066;32;20135;-60
2022/11/18 12:12:54;;;;;;;1.98;1.58;;;;;;;10.69;69.21;98808.34;18295510;32;20178;-60
2022/11/18 12:23:13;;;;;;;0.60;0.60;;;;;;;10.40;69.31;98809.97;18281919;32;20114;-60
2022/11/18 12:33:17;;;;;;;0.60;0.60;;;;;;;10.72;68.46;98799.56;18296164;32;20140;-60
2022/11/18 12:43:57;;;;;;;0.70;0.70;;;;;;;10.55;69.19;98797.44;18328371;32;20133;-60
2022/11/18 12:54:20;;;;;;;1.92;1.75;;;;;;;10.46;69.95;98775.06;18164930;32;20144;-60
2022/11/18 13:04:23;;;;;;;0.70;0.70;;;;;;;10.55;69.60;98768.75;18169246;32;20147;-60
2022/11/18 13:24:51;;;;;;;1.77;1.67;;;;;;;10.61;69.87;98765.94;18233099;32;20123;-61
2022/11/18 13:34:58;;;;;;;0.73;0.73;;;;;;;10.79;69.74;98785.44;18430819;32;20116;-60
2022/11/18 13:45:02;;;;;;;0.52;0.52;;;;;;;10.94;68.94;98798.94;18430937;32;20123;-60
2022/11/18 14:05:52;;;;;;;0.65;0.65;;;;;;;10.81;69.40;98808.88;18430249;32;20117;-60
2022/11/18 14:15:57;;;;;;;0.60;0.60;;;;;;;10.58;69.90;98781.69;18430405;32;20100;-60
2022/11/18 14:26:03;;;;;;;0.60;0.60;;;;;;;10.85;69.17;98781.81;18428667;32;20116;-60
2022/11/18 14:36:11;;;;;;;2.05;1.67;;;;;;;10.55;70.35;98784.41;18430537;32;20185;-60
2022/11/18 14:46:18;;;;;;;2.12;1.83;;;;;;;10.88;69.18;98796.53;18429153;32;20705;-60
2022/11/18 14:56:25;;;;;;;0.88;0.88;;;;;;;10.50;70.27;98804.53;18413283;32;20097;-60
2022/11/18 15:06:30;;;;;;;8.15;1.20;;;;;;;10.39;70.78;98800.44;18423940;32;20094;-60
2022/11/18 15:16:35;;;;;;;0.50;0.50;;;;;;;10.99;69.02;98794.44;18427124;32;20747;-60
2022/11/18 15:26:41;;;;;;;0.75;0.75;;;;;;;11.16;68.58;98793.94;18425428;32;20177;-60
2022/11/18 15:36:44;;;;;;;0.80;0.80;;;;;;;11.12;69.10;98791.47;18429018;32;20167;-60
2022/11/18 15:46:49;;;;;;;2.47;0.73;;;;;;;11.06;69.45;98795.97;18435258;32;20097;-60
2022/11/18 15:56:52;;;;;;;1.62;1.10;;;;;;;11.18;69.21;98796.50;18435471;32;20096;-60
2022/11/18 16:06:58;;;;;;;1.27;1.00;;;;;;;11.20;69.12;98811.22;18433617;32;20104;-60
2022/11/18 16:17:02;;;;;;;0.98;0.93;;;;;;;11.19;69.43;98816.50;18433242;32;20112;-60
2022/11/18 16:27:06;;;;;;;0.70;0.70;;;;;;;11.28;69.25;98812.72;18433287;32;20097;-60
2022/11/18 16:37:09;;;;;;;1.33;1.23;;;;;;;11.23;69.34;98821.56;18432601;32;20138;-60
2022/11/18 16:47:14;;;;;;;5.53;1.77;;;;;;;11.34;69.11;98823.00;18433165;32;20369;-60
2022/11/18 16:57:17;;;;;;;0.50;0.50;;;;;;;11.27;69.44;98821.47;18433555;32;20093;-60
2022/11/18 17:07:22;;;;;;;0.45;0.45;;;;;;;11.22;69.43;98832.06;18432780;32;20101;-60
2022/11/18 17:17:25;;;;;;;1.17;0.82;;;;;;;11.18;69.68;98835.69;18433062;32;20092;-60
2022/11/18 17:27:30;;;;;;;7.70;2.28;;;;;;;11.28;69.35;98844.06;18432453;32;20416;-60
2022/11/18 17:37:33;;;;;;;1.48;1.08;;;;;;;11.16;69.81;98846.16;18417569;32;20156;-60
2022/11/18 17:47:37;;;;;;;0.40;0.40;;;;;;;11.26;69.53;98851.97;18431266;32;20373;-61
2022/11/18 17:57:41;;;;;;;1.10;1.10;;;;;;;11.22;69.66;98869.50;18427662;32;20449;-60
2022/11/18 18:07:47;;;;;;;1.33;1.33;;;;;;;11.29;69.36;98880.63;18429491;32;20357;-60
2022/11/18 18:17:50;;;;;;;0.60;0.60;;;;;;;11.29;69.52;98877.16;18431354;32;20420;-60
2022/11/18 18:27:54;;;;;;;0.40;0.40;;;;;;;11.30;69.42;98891.94;18430274;32;20111;-60
2022/11/18 18:38:00;;;;;;;1.80;1.70;;;;;;;11.33;69.35;98894.44;18430871;32;20080;-60
2022/11/18 18:48:05;;;;;;;1.48;1.40;;;;;;;11.38;69.30;98913.44;18428661;32;20113;-60
2022/11/18 18:58:09;;;;;;;1.17;1.08;;;;;;;11.37;69.23;98924.78;18428385;32;20088;-60
2022/11/18 19:08:14;;;;;;;0.85;0.85;;;;;;;11.30;69.63;98925.91;18427954;32;20101;-60
2022/11/18 19:18:17;;;;;;;0.60;0.60;;;;;;;11.39;69.21;98949.16;18436078;32;20166;-60
2022/11/18 19:28:22;;;;;;;0.82;0.82;;;;;;;11.00;70.71;98963.25;18421509;32;20154;-61
2022/11/18 19:38:26;;;;;;;0.90;0.85;;;;;;;11.30;69.69;98965.91;18434668;32;20096;-60
2022/11/18 19:48:31;;;;;;;2.30;1.37;;;;;;;11.27;69.89;98983.44;18435330;32;20097;-60
2022/11/18 19:58:37;;;;;;;0.75;0.70;;;;;;;11.23;70.14;98998.31;18420921;32;20088;-60
2022/11/18 20:08:42;;;;;;;1.90;1.12;;;;;;;11.19;70.39;99013.25;18434323;32;20089;-60
2022/11/18 20:18:48;;;;;;;1.25;0.82;;;;;;;11.23;70.12;99024.44;18432903;32;20085;-60
2022/11/18 20:28:53;;;;;;;1.48;1.33;;;;;;;11.25;70.04;99054.03;18433351;32;20089;-60
2022/11/18 20:39:01;;;;;;;1.50;1.00;;;;;;;11.30;70.05;99080.03;18433232;32;20423;-60
2022/11/18 20:49:06;;;;;;;0.25;0.25;;;;;;;11.24;69.89;99105.41;18417410;32;20093;-61
2022/11/18 20:59:10;;;;;;;0.65;0.65;;;;;;;11.23;69.32;99114.12;18412642;32;20338;-60
2022/11/18 21:09:15;;;;;;;0.40;0.40;;;;;;;11.04;68.60;99128.56;18433385;32;20092;-60
2022/11/18 21:19:19;;;;;;;0.40;0.40;;;;;;;10.96;68.80;99142.66;18434553;32;20130;-60
2022/11/18 21:29:26;;;;;;;1.48;0.93;;;;;;;10.87;68.69;99178.56;18432934;32;20158;-60
2022/11/18 21:39:29;;;;;;;0.55;0.55;;;;;;;10.63;67.45;99197.38;18431553;32;20089;-60
2022/11/18 21:49:34;;;;;;;0.52;0.52;;;;;;;10.09;66.76;99208.84;18432109;32;20749;-60
2022/11/18 21:59:37;;;;;;;0.60;0.60;;;;;;;9.90;66.85;99206.59;18432001;32;20093;-60
2022/11/18 22:09:42;;;;;;;0.50;0.50;;;;;;;9.71;66.96;99229.53;18431193;32;20089;-60
2022/11/18 22:19:45;;;;;;;0.62;0.62;;;;;;;9.49;66.48;99255.97;18430260;32;20137;-60
2022/11/18 22:29:49;;;;;;;1.17;0.80;;;;;;;9.33;66.96;99257.91;18429811;32;20085;-61
2022/11/18 22:39:52;;;;;;;0.50;0.50;;;;;;;9.37;66.96;99269.16;18425163;32;20126;-60
2022/11/18 22:49:57;;;;;;;0.60;0.60;;;;;;;9.35;66.70;99294.38;18434273;32;20137;-60
2022/11/18 23:00:00;;;;;;;0.62;0.62;;;;;;;9.40;65.81;99321.22;18437083;32;20093;-60
2022/11/18 23:10:05;;;;;;;1.00;1.00;;;;;;;9.06;66.06;99311.28;18422370;32;20117;-60
2022/11/18 23:20:09;;;;;;;0.55;0.55;;;;;;;9.05;66.00;99326.00;18436643;32;20146;-60
2022/11/18 23:30:14;;;;;;;2.17;1.48;;;;;;;8.93;66.23;99326.19;18436089;32;20100;-61
2022/11/18 23:40:18;;;;;;;0.57;0.57;;;;;;;8.82;66.50;99341.91;18434559;32;20084;-60
2022/11/18 23:50:22;;;;;;;0.55;0.55;;;;;;;8.61;67.08;99354.31;18429370;32;20142;-60
